sensor_id;sensor_type;location;lat;lon;timestamp;P1;durP1;ratioP1;P2;durP2;ratioP2
61104;SDS011;46987;32.638;-115.438;2023-02-20T00:01:15;9.98;;;2.55;;
61104;SDS011;46987;32.638;-115.438;2023-02-20T00:03:43;6.75;;;2.45;;
61104;SDS011;46987;32.638;-115.438;2023-02-20T00:06:10;8.77;;;2.78;;
61104;SDS011;46987;32.638;-115.438;2023-02-20T00:08:36;6.50;;;2.38;;
61104;SDS011;46987;32.638;-115.438;2023-02-20T00:11:03;9.77;;;2.72;;
61104;SDS011;46987;32.638;-115.438;2023-02-20T00:13:29;9.00;;;2.95;;
61104;SDS011;46987;32.638;-115.438;2023-02-20T00:15:56;12.10;;;3.38;;
61104;SDS011;46987;32.638;-115.438;2023-02-20T00:18:24;18.52;;;4.10;;
61104;SDS011;46987;32.638;-115.438;2023-02-20T00:20:50;8.63;;;3.30;;
61104;SDS011;46987;32.638;-115.438;2023-02-20T00:23:17;10.88;;;2.95;;
61104;SDS011;46987;32.638;-115.438;2023-02-20T00:25:44;11.63;;;2.97;;
61104;SDS011;46987;32.638;-115.438;2023-02-20T00:28:11;11.75;;;3.05;;
61104;SDS011;46987;32.638;-115.438;2023-02-20T00:30:39;8.65;;;2.47;;
61104;SDS011;46987;32.638;-115.438;2023-02-20T00:33:06;8.27;;;3.10;;
61104;SDS011;46987;32.638;-115.438;2023-02-20T00:35:34;12.23;;;3.20;;
61104;SDS011;46987;32.638;-115.438;2023-02-20T00:38:03;12.77;;;2.72;;
61104;SDS011;46987;32.638;-115.438;2023-02-20T00:40:30;9.60;;;3.03;;
61104;SDS011;46987;32.638;-115.438;2023-02-20T00:43:01;14.27;;;3.85;;
61104;SDS011;46987;32.638;-115.438;2023-02-20T00:45:28;17.00;;;3.70;;
61104;SDS011;46987;32.638;-115.438;2023-02-20T00:47:54;15.30;;;3.30;;
61104;SDS011;46987;32.638;-115.438;2023-02-20T00:50:23;9.07;;;3.40;;
61104;SDS011;46987;32.638;-115.438;2023-02-20T00:52:52;13.35;;;2.90;;
61104;SDS011;46987;32.638;-115.438;2023-02-20T00:55:18;12.43;;;2.70;;
61104;SDS011;46987;32.638;-115.438;2023-02-20T00:57:45;6.70;;;2.58;;
61104;SDS011;46987;32.638;-115.438;2023-02-20T01:00:16;10.40;;;2.92;;
61104;SDS011;46987;32.638;-115.438;2023-02-20T01:02:43;13.98;;;3.40;;
61104;SDS011;46987;32.638;-115.438;2023-02-20T01:05:11;8.98;;;2.80;;
61104;SDS011;46987;32.638;-115.438;2023-02-20T01:07:37;8.55;;;2.90;;
61104;SDS011;46987;32.638;-115.438;2023-02-20T01:10:09;18.27;;;3.25;;
61104;SDS011;46987;32.638;-115.438;2023-02-20T01:12:35;9.05;;;2.75;;
61104;SDS011;46987;32.638;-115.438;2023-02-20T01:15:02;9.73;;;3.78;;
61104;SDS011;46987;32.638;-115.438;2023-02-20T01:17:30;13.48;;;3.72;;
61104;SDS011;46987;32.638;-115.438;2023-02-20T01:19:56;13.20;;;3.05;;
61104;SDS011;46987;32.638;-115.438;2023-02-20T01:22:23;11.85;;;4.35;;
61104;SDS011;46987;32.638;-115.438;2023-02-20T01:24:50;11.70;;;3.50;;
61104;SDS011;46987;32.638;-115.438;2023-02-20T01:27:18;13.50;;;5.10;;
61104;SDS011;46987;32.638;-115.438;2023-02-20T01:29:45;15.35;;;6.38;;
61104;SDS011;46987;32.638;-115.438;2023-02-20T01:32:13;16.83;;;7.95;;
61104;SDS011;46987;32.638;-115.438;2023-02-20T01:34:40;10.68;;;5.47;;
61104;SDS011;46987;32.638;-115.438;2023-02-20T01:37:09;12.23;;;5.28;;
61104;SDS011;46987;32.638;-115.438;2023-02-20T01:39:40;16.30;;;5.32;;
61104;SDS011;46987;32.638;-115.438;2023-02-20T01:42:10;14.88;;;5.70;;
61104;SDS011;46987;32.638;-115.438;2023-02-20T01:44:41;11.10;;;5.13;;
61104;SDS011;46987;32.638;-115.438;2023-02-20T01:47:09;11.77;;;5.13;;
61104;SDS011;46987;32.638;-115.438;2023-02-20T01:49:40;17.67;;;5.38;;
61104;SDS011;46987;32.638;-115.438;2023-02-20T01:52:09;16.40;;;5.05;;
61104;SDS011;46987;32.638;-115.438;2023-02-20T01:54:38;13.88;;;4.68;;
61104;SDS011;46987;32.638;-115.438;2023-02-20T01:57:08;12.43;;;5.13;;
61104;SDS011;46987;32.638;-115.438;2023-02-20T01:59:37;27.00;;;11.90;;
61104;SDS011;46987;32.638;-115.438;2023-02-20T02:02:06;25.25;;;10.23;;
61104;SDS011;46987;32.638;-115.438;2023-02-20T02:04:33;18.35;;;9.75;;
61104;SDS011;46987;32.638;-115.438;2023-02-20T02:07:01;20.45;;;8.10;;
61104;SDS011;46987;32.638;-115.438;2023-02-20T02:09:32;19.17;;;8.82;;
61104;SDS011;46987;32.638;-115.438;2023-02-20T02:12:00;22.58;;;11.65;;
61104;SDS011;46987;32.638;-115.438;2023-02-20T02:14:27;23.10;;;11.18;;
61104;SDS011;46987;32.638;-115.438;2023-02-20T02:16:57;22.63;;;9.70;;
61104;SDS011;46987;32.638;-115.438;2023-02-20T02:19:38;24.55;;;11.63;;
61104;SDS011;46987;32.638;-115.438;2023-02-20T02:25:07;21.77;;;10.38;;
61104;SDS011;46987;32.638;-115.438;2023-02-20T02:27:43;27.00;;;10.65;;
61104;SDS011;46987;32.638;-115.438;2023-02-20T02:35:56;29.20;;;9.02;;
61104;SDS011;46987;32.638;-115.438;2023-02-20T02:38:25;32.78;;;8.98;;
61104;SDS011;46987;32.638;-115.438;2023-02-20T02:40:56;27.20;;;8.45;;
61104;SDS011;46987;32.638;-115.438;2023-02-20T02:43:28;28.58;;;9.48;;
61104;SDS011;46987;32.638;-115.438;2023-02-20T02:45:58;27.60;;;10.52;;
61104;SDS011;46987;32.638;-115.438;2023-02-20T02:48:27;23.98;;;8.48;;
61104;SDS011;46987;32.638;-115.438;2023-02-20T02:50:58;34.38;;;8.98;;
61104;SDS011;46987;32.638;-115.438;2023-02-20T02:53:26;29.35;;;8.25;;
61104;SDS011;46987;32.638;-115.438;2023-02-20T02:55:53;28.67;;;8.20;;
61104;SDS011;46987;32.638;-115.438;2023-02-20T02:58:19;29.88;;;8.38;;
61104;SDS011;46987;32.638;-115.438;2023-02-20T03:00:48;22.15;;;7.30;;
61104;SDS011;46987;32.638;-115.438;2023-02-20T03:03:17;46.40;;;8.60;;
61104;SDS011;46987;32.638;-115.438;2023-02-20T03:05:49;27.55;;;8.10;;
61104;SDS011;46987;32.638;-115.438;2023-02-20T03:08:20;20.02;;;8.10;;
61104;SDS011;46987;32.638;-115.438;2023-02-20T03:10:56;29.40;;;8.88;;
61104;SDS011;46987;32.638;-115.438;2023-02-20T03:13:29;24.17;;;7.50;;
61104;SDS011;46987;32.638;-115.438;2023-02-20T03:16:18;18.50;;;6.82;;
61104;SDS011;46987;32.638;-115.438;2023-02-20T03:18:46;22.42;;;7.15;;
61104;SDS011;46987;32.638;-115.438;2023-02-20T03:21:16;27.20;;;8.68;;
61104;SDS011;46987;32.638;-115.438;2023-02-20T03:23:45;29.58;;;7.95;;
61104;SDS011;46987;32.638;-115.438;2023-02-20T03:26:14;23.38;;;9.18;;
61104;SDS011;46987;32.638;-115.438;2023-02-20T03:28:50;36.50;;;10.80;;
61104;SDS011;46987;32.638;-115.438;2023-02-20T03:31:20;33.38;;;10.98;;
61104;SDS011;46987;32.638;-115.438;2023-02-20T03:33:52;33.17;;;10.55;;
61104;SDS011;46987;32.638;-115.438;2023-02-20T03:36:40;33.80;;;11.77;;
61104;SDS011;46987;32.638;-115.438;2023-02-20T03:39:29;43.85;;;15.48;;
61104;SDS011;46987;32.638;-115.438;2023-02-20T03:42:16;26.70;;;14.10;;
61104;SDS011;46987;32.638;-115.438;2023-02-20T03:45:09;42.33;;;15.30;;
61104;SDS011;46987;32.638;-115.438;2023-02-20T03:47:38;36.95;;;14.73;;
61104;SDS011;46987;32.638;-115.438;2023-02-20T03:50:07;31.00;;;13.82;;
61104;SDS011;46987;32.638;-115.438;2023-02-20T03:52:36;39.50;;;14.07;;
61104;SDS011;46987;32.638;-115.438;2023-02-20T03:55:06;43.92;;;16.15;;
61104;SDS011;46987;32.638;-115.438;2023-02-20T03:57:36;37.88;;;14.52;;
61104;SDS011;46987;32.638;-115.438;2023-02-20T04:00:05;42.40;;;15.95;;
61104;SDS011;46987;32.638;-115.438;2023-02-20T04:02:41;44.42;;;15.30;;
61104;SDS011;46987;32.638;-115.438;2023-02-20T04:05:11;35.40;;;15.40;;
61104;SDS011;46987;32.638;-115.438;2023-02-20T04:07:40;33.03;;;15.35;;
61104;SDS011;46987;32.638;-115.438;2023-02-20T04:10:10;34.75;;;15.18;;
61104;SDS011;46987;32.638;-115.438;2023-02-20T04:12:38;34.83;;;14.15;;
61104;SDS011;46987;32.638;-115.438;2023-02-20T04:15:06;40.10;;;13.88;;
61104;SDS011;46987;32.638;-115.438;2023-02-20T04:17:36;42.05;;;17.55;;
61104;SDS011;46987;32.638;-115.438;2023-02-20T04:20:05;34.10;;;16.42;;
61104;SDS011;46987;32.638;-115.438;2023-02-20T04:22:37;46.80;;;20.88;;
61104;SDS011;46987;32.638;-115.438;2023-02-20T04:25:06;36.47;;;18.17;;
61104;SDS011;46987;32.638;-115.438;2023-02-20T04:27:37;39.13;;;16.05;;
61104;SDS011;46987;32.638;-115.438;2023-02-20T04:30:04;36.78;;;17.13;;
61104;SDS011;46987;32.638;-115.438;2023-02-20T04:32:31;42.33;;;17.58;;
61104;SDS011;46987;32.638;-115.438;2023-02-20T04:34:58;44.03;;;17.70;;
61104;SDS011;46987;32.638;-115.438;2023-02-20T04:37:26;35.05;;;14.15;;
61104;SDS011;46987;32.638;-115.438;2023-02-20T04:39:54;30.65;;;13.63;;
61104;SDS011;46987;32.638;-115.438;2023-02-20T04:42:21;27.13;;;11.35;;
61104;SDS011;46987;32.638;-115.438;2023-02-20T04:44:50;28.27;;;10.23;;
61104;SDS011;46987;32.638;-115.438;2023-02-20T04:47:17;28.88;;;10.20;;
61104;SDS011;46987;32.638;-115.438;2023-02-20T04:49:44;19.75;;;9.35;;
61104;SDS011;46987;32.638;-115.438;2023-02-20T04:52:15;18.63;;;8.60;;
61104;SDS011;46987;32.638;-115.438;2023-02-20T04:54:42;25.05;;;9.13;;
61104;SDS011;46987;32.638;-115.438;2023-02-20T04:57:11;25.95;;;9.27;;
61104;SDS011;46987;32.638;-115.438;2023-02-20T04:59:39;22.45;;;8.05;;
61104;SDS011;46987;32.638;-115.438;2023-02-20T05:02:07;18.90;;;7.53;;
61104;SDS011;46987;32.638;-115.438;2023-02-20T05:04:34;19.58;;;7.32;;
61104;SDS011;46987;32.638;-115.438;2023-02-20T05:07:01;25.33;;;7.07;;
61104;SDS011;46987;32.638;-115.438;2023-02-20T05:09:27;16.70;;;6.30;;
61104;SDS011;46987;32.638;-115.438;2023-02-20T05:11:54;14.05;;;5.65;;
61104;SDS011;46987;32.638;-115.438;2023-02-20T05:14:20;13.85;;;5.07;;
61104;SDS011;46987;32.638;-115.438;2023-02-20T05:16:47;14.55;;;4.85;;
61104;SDS011;46987;32.638;-115.438;2023-02-20T05:19:15;17.90;;;7.05;;
61104;SDS011;46987;32.638;-115.438;2023-02-20T05:21:42;16.33;;;6.35;;
61104;SDS011;46987;32.638;-115.438;2023-02-20T05:24:29;15.57;;;6.47;;
61104;SDS011;46987;32.638;-115.438;2023-02-20T05:26:57;17.75;;;6.47;;
61104;SDS011;46987;32.638;-115.438;2023-02-20T05:29:23;18.67;;;6.22;;
61104;SDS011;46987;32.638;-115.438;2023-02-20T05:31:50;14.70;;;5.65;;
61104;SDS011;46987;32.638;-115.438;2023-02-20T05:34:19;18.25;;;5.38;;
61104;SDS011;46987;32.638;-115.438;2023-02-20T05:36:50;12.95;;;5.47;;
61104;SDS011;46987;32.638;-115.438;2023-02-20T05:39:17;18.48;;;5.82;;
61104;SDS011;46987;32.638;-115.438;2023-02-20T05:41:44;12.65;;;6.30;;
61104;SDS011;46987;32.638;-115.438;2023-02-20T05:44:10;19.58;;;5.90;;
61104;SDS011;46987;32.638;-115.438;2023-02-20T05:46:38;9.60;;;5.25;;
61104;SDS011;46987;32.638;-115.438;2023-02-20T05:49:05;12.20;;;4.65;;
61104;SDS011;46987;32.638;-115.438;2023-02-20T05:51:34;10.98;;;4.95;;
61104;SDS011;46987;32.638;-115.438;2023-02-20T05:54:01;14.23;;;5.47;;
61104;SDS011;46987;32.638;-115.438;2023-02-20T05:56:27;13.48;;;6.60;;
61104;SDS011;46987;32.638;-115.438;2023-02-20T05:58:55;19.98;;;8.55;;
61104;SDS011;46987;32.638;-115.438;2023-02-20T06:01:23;20.80;;;8.82;;
61104;SDS011;46987;32.638;-115.438;2023-02-20T06:03:50;16.55;;;8.30;;
61104;SDS011;46987;32.638;-115.438;2023-02-20T06:06:17;17.63;;;9.40;;
61104;SDS011;46987;32.638;-115.438;2023-02-20T06:08:46;18.25;;;9.02;;
61104;SDS011;46987;32.638;-115.438;2023-02-20T06:11:13;19.92;;;10.27;;
61104;SDS011;46987;32.638;-115.438;2023-02-20T06:13:40;19.23;;;7.75;;
61104;SDS011;46987;32.638;-115.438;2023-02-20T06:16:08;15.00;;;7.05;;
61104;SDS011;46987;32.638;-115.438;2023-02-20T06:18:37;12.55;;;7.50;;
61104;SDS011;46987;32.638;-115.438;2023-02-20T06:21:05;14.80;;;6.32;;
61104;SDS011;46987;32.638;-115.438;2023-02-20T06:23:32;15.85;;;6.20;;
61104;SDS011;46987;32.638;-115.438;2023-02-20T06:26:01;8.65;;;4.22;;
61104;SDS011;46987;32.638;-115.438;2023-02-20T06:28:27;9.95;;;5.10;;
61104;SDS011;46987;32.638;-115.438;2023-02-20T06:30:54;13.13;;;4.50;;
61104;SDS011;46987;32.638;-115.438;2023-02-20T06:33:21;9.32;;;3.63;;
61104;SDS011;46987;32.638;-115.438;2023-02-20T06:35:48;12.85;;;3.92;;
61104;SDS011;46987;32.638;-115.438;2023-02-20T06:38:14;16.27;;;4.25;;
61104;SDS011;46987;32.638;-115.438;2023-02-20T06:40:41;11.50;;;3.60;;
61104;SDS011;46987;32.638;-115.438;2023-02-20T06:43:10;8.85;;;3.67;;
61104;SDS011;46987;32.638;-115.438;2023-02-20T06:45:37;10.73;;;3.85;;
61104;SDS011;46987;32.638;-115.438;2023-02-20T06:48:03;11.20;;;3.30;;
61104;SDS011;46987;32.638;-115.438;2023-02-20T06:50:30;8.43;;;3.17;;
61104;SDS011;46987;32.638;-115.438;2023-02-20T06:52:56;12.48;;;3.20;;
61104;SDS011;46987;32.638;-115.438;2023-02-20T06:55:23;9.68;;;3.22;;
61104;SDS011;46987;32.638;-115.438;2023-02-20T06:57:50;9.38;;;3.70;;
61104;SDS011;46987;32.638;-115.438;2023-02-20T07:00:19;12.68;;;5.13;;
61104;SDS011;46987;32.638;-115.438;2023-02-20T07:02:46;11.50;;;3.67;;
61104;SDS011;46987;32.638;-115.438;2023-02-20T07:05:12;8.93;;;4.03;;
61104;SDS011;46987;32.638;-115.438;2023-02-20T07:07:39;12.32;;;5.50;;
61104;SDS011;46987;32.638;-115.438;2023-02-20T07:10:06;15.43;;;6.85;;
61104;SDS011;46987;32.638;-115.438;2023-02-20T07:12:32;16.85;;;7.53;;
61104;SDS011;46987;32.638;-115.438;2023-02-20T07:15:02;15.50;;;9.00;;
61104;SDS011;46987;32.638;-115.438;2023-02-20T07:17:31;17.65;;;8.15;;
61104;SDS011;46987;32.638;-115.438;2023-02-20T07:19:57;16.52;;;9.02;;
61104;SDS011;46987;32.638;-115.438;2023-02-20T07:22:24;15.30;;;8.48;;
61104;SDS011;46987;32.638;-115.438;2023-02-20T07:24:51;12.43;;;7.30;;
61104;SDS011;46987;32.638;-115.438;2023-02-20T07:27:17;14.45;;;6.60;;
61104;SDS011;46987;32.638;-115.438;2023-02-20T07:29:44;9.57;;;4.95;;
61104;SDS011;46987;32.638;-115.438;2023-02-20T07:32:11;10.98;;;5.85;;
61104;SDS011;46987;32.638;-115.438;2023-02-20T07:34:39;11.18;;;5.18;;
61104;SDS011;46987;32.638;-115.438;2023-02-20T07:37:06;11.27;;;4.63;;
61104;SDS011;46987;32.638;-115.438;2023-02-20T07:39:33;9.95;;;4.07;;
61104;SDS011;46987;32.638;-115.438;2023-02-20T07:41:59;7.60;;;4.50;;
61104;SDS011;46987;32.638;-115.438;2023-02-20T07:44:43;9.07;;;4.80;;
61104;SDS011;46987;32.638;-115.438;2023-02-20T07:47:14;11.90;;;4.50;;
61104;SDS011;46987;32.638;-115.438;2023-02-20T07:49:42;9.88;;;4.80;;
61104;SDS011;46987;32.638;-115.438;2023-02-20T07:52:09;8.82;;;4.70;;
61104;SDS011;46987;32.638;-115.438;2023-02-20T07:54:36;10.50;;;4.70;;
61104;SDS011;46987;32.638;-115.438;2023-02-20T07:57:02;11.20;;;4.50;;
61104;SDS011;46987;32.638;-115.438;2023-02-20T07:59:29;14.80;;;5.20;;
61104;SDS011;46987;32.638;-115.438;2023-02-20T08:01:55;11.35;;;4.63;;
61104;SDS011;46987;32.638;-115.438;2023-02-20T08:04:22;13.02;;;4.75;;
61104;SDS011;46987;32.638;-115.438;2023-02-20T08:06:50;10.95;;;4.15;;
61104;SDS011;46987;32.638;-115.438;2023-02-20T08:09:17;10.57;;;3.90;;
61104;SDS011;46987;32.638;-115.438;2023-02-20T08:11:44;10.05;;;3.90;;
61104;SDS011;46987;32.638;-115.438;2023-02-20T08:14:11;8.10;;;4.50;;
61104;SDS011;46987;32.638;-115.438;2023-02-20T08:16:41;14.55;;;5.63;;
61104;SDS011;46987;32.638;-115.438;2023-02-20T08:19:08;9.10;;;4.68;;
61104;SDS011;46987;32.638;-115.438;2023-02-20T08:21:34;11.52;;;5.13;;
61104;SDS011;46987;32.638;-115.438;2023-02-20T08:24:03;10.20;;;4.57;;
61104;SDS011;46987;32.638;-115.438;2023-02-20T08:26:30;10.55;;;5.30;;
61104;SDS011;46987;32.638;-115.438;2023-02-20T08:28:56;10.50;;;4.30;;
61104;SDS011;46987;32.638;-115.438;2023-02-20T08:31:23;13.65;;;4.90;;
61104;SDS011;46987;32.638;-115.438;2023-02-20T08:33:49;9.43;;;4.75;;
61104;SDS011;46987;32.638;-115.438;2023-02-20T08:36:16;9.18;;;4.40;;
61104;SDS011;46987;32.638;-115.438;2023-02-20T08:38:44;9.23;;;4.82;;
61104;SDS011;46987;32.638;-115.438;2023-02-20T08:41:12;12.68;;;5.20;;
61104;SDS011;46987;32.638;-115.438;2023-02-20T08:43:39;12.95;;;5.80;;
61104;SDS011;46987;32.638;-115.438;2023-02-20T08:46:08;11.75;;;5.10;;
61104;SDS011;46987;32.638;-115.438;2023-02-20T08:48:34;12.35;;;5.03;;
61104;SDS011;46987;32.638;-115.438;2023-02-20T08:51:01;12.48;;;5.93;;
61104;SDS011;46987;32.638;-115.438;2023-02-20T08:53:28;13.07;;;5.75;;
61104;SDS011;46987;32.638;-115.438;2023-02-20T08:55:54;11.02;;;5.78;;
61104;SDS011;46987;32.638;-115.438;2023-02-20T08:58:23;9.57;;;5.18;;
61104;SDS011;46987;32.638;-115.438;2023-02-20T09:00:50;15.00;;;6.22;;
61104;SDS011;46987;32.638;-115.438;2023-02-20T09:03:17;11.00;;;6.03;;
61104;SDS011;46987;32.638;-115.438;2023-02-20T09:05:43;11.35;;;5.72;;
61104;SDS011;46987;32.638;-115.438;2023-02-20T09:08:10;13.15;;;5.30;;
61104;SDS011;46987;32.638;-115.438;2023-02-20T09:10:37;10.10;;;5.03;;
61104;SDS011;46987;32.638;-115.438;2023-02-20T09:13:03;10.05;;;5.40;;
61104;SDS011;46987;32.638;-115.438;2023-02-20T09:15:31;10.93;;;5.43;;
61104;SDS011;46987;32.638;-115.438;2023-02-20T09:18:03;12.73;;;5.15;;
61104;SDS011;46987;32.638;-115.438;2023-02-20T09:20:31;7.63;;;4.70;;
61104;SDS011;46987;32.638;-115.438;2023-02-20T09:22:58;7.95;;;4.57;;
61104;SDS011;46987;32.638;-115.438;2023-02-20T09:25:25;10.88;;;5.15;;
61104;SDS011;46987;32.638;-115.438;2023-02-20T09:27:51;10.93;;;5.38;;
61104;SDS011;46987;32.638;-115.438;2023-02-20T09:30:18;11.00;;;5.40;;
61104;SDS011;46987;32.638;-115.438;2023-02-20T09:32:48;9.43;;;4.90;;
61104;SDS011;46987;32.638;-115.438;2023-02-20T09:35:15;8.45;;;4.82;;
61104;SDS011;46987;32.638;-115.438;2023-02-20T09:37:42;8.10;;;5.10;;
61104;SDS011;46987;32.638;-115.438;2023-02-20T09:40:10;10.35;;;5.20;;
61104;SDS011;46987;32.638;-115.438;2023-02-20T09:42:38;9.88;;;5.18;;
61104;SDS011;46987;32.638;-115.438;2023-02-20T09:45:08;10.38;;;5.70;;
61104;SDS011;46987;32.638;-115.438;2023-02-20T09:47:40;11.88;;;5.22;;
61104;SDS011;46987;32.638;-115.438;2023-02-20T09:50:12;9.65;;;5.60;;
61104;SDS011;46987;32.638;-115.438;2023-02-20T09:52:40;9.55;;;4.75;;
61104;SDS011;46987;32.638;-115.438;2023-02-20T09:55:11;12.70;;;5.13;;
61104;SDS011;46987;32.638;-115.438;2023-02-20T09:57:38;11.85;;;5.50;;
61104;SDS011;46987;32.638;-115.438;2023-02-20T10:00:06;11.98;;;5.00;;
61104;SDS011;46987;32.638;-115.438;2023-02-20T10:02:35;13.23;;;5.15;;
61104;SDS011;46987;32.638;-115.438;2023-02-20T10:05:05;13.07;;;5.47;;
61104;SDS011;46987;32.638;-115.438;2023-02-20T10:07:35;12.85;;;6.18;;
61104;SDS011;46987;32.638;-115.438;2023-02-20T10:10:07;12.05;;;5.05;;
61104;SDS011;46987;32.638;-115.438;2023-02-20T10:12:44;12.13;;;5.97;;
61104;SDS011;46987;32.638;-115.438;2023-02-20T10:15:16;11.48;;;5.45;;
61104;SDS011;46987;32.638;-115.438;2023-02-20T10:17:47;10.45;;;6.30;;
61104;SDS011;46987;32.638;-115.438;2023-02-20T10:20:16;12.43;;;6.22;;
61104;SDS011;46987;32.638;-115.438;2023-02-20T10:22:50;13.60;;;6.13;;
61104;SDS011;46987;32.638;-115.438;2023-02-20T10:25:21;13.50;;;6.85;;
61104;SDS011;46987;32.638;-115.438;2023-02-20T10:27:51;16.05;;;7.57;;
61104;SDS011;46987;32.638;-115.438;2023-02-20T10:30:23;18.65;;;6.85;;
61104;SDS011;46987;32.638;-115.438;2023-02-20T10:32:51;14.07;;;6.93;;
61104;SDS011;46987;32.638;-115.438;2023-02-20T10:35:21;17.33;;;6.82;;
61104;SDS011;46987;32.638;-115.438;2023-02-20T10:37:51;12.98;;;6.38;;
61104;SDS011;46987;32.638;-115.438;2023-02-20T10:40:21;16.52;;;6.90;;
61104;SDS011;46987;32.638;-115.438;2023-02-20T10:42:51;13.52;;;6.82;;
61104;SDS011;46987;32.638;-115.438;2023-02-20T10:45:21;13.30;;;7.53;;
61104;SDS011;46987;32.638;-115.438;2023-02-20T10:50:19;13.23;;;8.60;;
61104;SDS011;46987;32.638;-115.438;2023-02-20T10:52:50;12.35;;;7.88;;
61104;SDS011;46987;32.638;-115.438;2023-02-20T10:55:19;17.02;;;8.43;;
61104;SDS011;46987;32.638;-115.438;2023-02-20T10:57:48;16.17;;;8.43;;
61104;SDS011;46987;32.638;-115.438;2023-02-20T11:00:16;12.30;;;7.75;;
61104;SDS011;46987;32.638;-115.438;2023-02-20T11:02:46;17.90;;;7.85;;
61104;SDS011;46987;32.638;-115.438;2023-02-20T11:05:15;19.08;;;12.00;;
61104;SDS011;46987;32.638;-115.438;2023-02-20T11:07:41;17.70;;;12.05;;
61104;SDS011;46987;32.638;-115.438;2023-02-20T11:10:10;25.85;;;15.95;;
61104;SDS011;46987;32.638;-115.438;2023-02-20T11:12:39;24.98;;;17.42;;
61104;SDS011;46987;32.638;-115.438;2023-02-20T11:15:07;12.60;;;8.18;;
61104;SDS011;46987;32.638;-115.438;2023-02-20T11:17:35;13.65;;;7.85;;
61104;SDS011;46987;32.638;-115.438;2023-02-20T11:20:03;15.85;;;7.40;;
61104;SDS011;46987;32.638;-115.438;2023-02-20T11:22:38;13.88;;;8.45;;
61104;SDS011;46987;32.638;-115.438;2023-02-20T11:25:18;11.65;;;8.43;;
61104;SDS011;46987;32.638;-115.438;2023-02-20T11:27:45;13.18;;;7.72;;
61104;SDS011;46987;32.638;-115.438;2023-02-20T11:30:21;14.02;;;8.73;;
61104;SDS011;46987;32.638;-115.438;2023-02-20T11:32:48;12.65;;;7.38;;
61104;SDS011;46987;32.638;-115.438;2023-02-20T11:35:24;17.95;;;7.93;;
61104;SDS011;46987;32.638;-115.438;2023-02-20T11:40:39;13.02;;;7.63;;
61104;SDS011;46987;32.638;-115.438;2023-02-20T11:43:09;14.00;;;7.63;;
61104;SDS011;46987;32.638;-115.438;2023-02-20T11:45:36;15.15;;;7.68;;
61104;SDS011;46987;32.638;-115.438;2023-02-20T11:48:07;13.90;;;7.85;;
61104;SDS011;46987;32.638;-115.438;2023-02-20T11:50:38;13.30;;;7.18;;
61104;SDS011;46987;32.638;-115.438;2023-02-20T11:53:05;11.48;;;7.65;;
61104;SDS011;46987;32.638;-115.438;2023-02-20T11:55:33;14.82;;;7.93;;
61104;SDS011;46987;32.638;-115.438;2023-02-20T11:58:01;15.90;;;8.32;;
61104;SDS011;46987;32.638;-115.438;2023-02-20T12:00:28;15.90;;;8.10;;
61104;SDS011;46987;32.638;-115.438;2023-02-20T12:03:10;14.68;;;9.63;;
61104;SDS011;46987;32.638;-115.438;2023-02-20T12:05:37;13.30;;;7.90;;
61104;SDS011;46987;32.638;-115.438;2023-02-20T12:08:19;11.15;;;6.78;;
61104;SDS011;46987;32.638;-115.438;2023-02-20T12:10:48;16.63;;;7.68;;
61104;SDS011;46987;32.638;-115.438;2023-02-20T12:13:19;12.88;;;8.57;;
61104;SDS011;46987;32.638;-115.438;2023-02-20T12:15:46;30.85;;;25.02;;
61104;SDS011;46987;32.638;-115.438;2023-02-20T12:18:23;50.83;;;40.50;;
61104;SDS011;46987;32.638;-115.438;2023-02-20T12:20:57;43.72;;;32.97;;
61104;SDS011;46987;32.638;-115.438;2023-02-20T12:23:32;42.90;;;35.22;;
61104;SDS011;46987;32.638;-115.438;2023-02-20T12:26:07;41.85;;;34.92;;
61104;SDS011;46987;32.638;-115.438;2023-02-20T12:28:41;33.35;;;23.55;;
61104;SDS011;46987;32.638;-115.438;2023-02-20T12:31:17;21.27;;;15.82;;
61104;SDS011;46987;32.638;-115.438;2023-02-20T12:33:57;18.95;;;13.38;;
61104;SDS011;46987;32.638;-115.438;2023-02-20T12:36:32;22.50;;;12.35;;
61104;SDS011;46987;32.638;-115.438;2023-02-20T12:39:02;15.02;;;12.23;;
61104;SDS011;46987;32.638;-115.438;2023-02-20T12:41:35;19.92;;;12.10;;
61104;SDS011;46987;32.638;-115.438;2023-02-20T12:44:13;17.25;;;10.30;;
61104;SDS011;46987;32.638;-115.438;2023-02-20T12:46:45;20.70;;;10.38;;
61104;SDS011;46987;32.638;-115.438;2023-02-20T12:49:19;19.02;;;11.00;;
61104;SDS011;46987;32.638;-115.438;2023-02-20T12:51:48;17.52;;;10.88;;
61104;SDS011;46987;32.638;-115.438;2023-02-20T12:54:22;17.85;;;10.50;;
61104;SDS011;46987;32.638;-115.438;2023-02-20T12:56:57;18.70;;;10.07;;
61104;SDS011;46987;32.638;-115.438;2023-02-20T12:59:30;18.25;;;8.88;;
61104;SDS011;46987;32.638;-115.438;2023-02-20T13:01:59;17.40;;;8.95;;
61104;SDS011;46987;32.638;-115.438;2023-02-20T13:04:29;14.18;;;7.85;;
61104;SDS011;46987;32.638;-115.438;2023-02-20T13:07:01;14.05;;;9.35;;
61104;SDS011;46987;32.638;-115.438;2023-02-20T13:09:28;14.45;;;8.90;;
61104;SDS011;46987;32.638;-115.438;2023-02-20T13:12:00;15.38;;;8.48;;
61104;SDS011;46987;32.638;-115.438;2023-02-20T13:14:36;22.70;;;8.88;;
61104;SDS011;46987;32.638;-115.438;2023-02-20T13:17:07;17.35;;;8.05;;
61104;SDS011;46987;32.638;-115.438;2023-02-20T13:19:40;17.58;;;8.13;;
61104;SDS011;46987;32.638;-115.438;2023-02-20T13:22:07;17.63;;;8.10;;
61104;SDS011;46987;32.638;-115.438;2023-02-20T13:24:34;16.50;;;7.95;;
61104;SDS011;46987;32.638;-115.438;2023-02-20T13:27:01;20.20;;;8.07;;
61104;SDS011;46987;32.638;-115.438;2023-02-20T13:29:55;15.85;;;7.38;;
61104;SDS011;46987;32.638;-115.438;2023-02-20T13:32:23;17.48;;;8.02;;
61104;SDS011;46987;32.638;-115.438;2023-02-20T13:34:50;16.27;;;8.27;;
61104;SDS011;46987;32.638;-115.438;2023-02-20T13:42:45;17.00;;;8.75;;
61104;SDS011;46987;32.638;-115.438;2023-02-20T13:50:40;12.30;;;8.23;;
61104;SDS011;46987;32.638;-115.438;2023-02-20T13:53:06;17.38;;;7.97;;
61104;SDS011;46987;32.638;-115.438;2023-02-20T13:55:33;18.23;;;8.68;;
61104;SDS011;46987;32.638;-115.438;2023-02-20T13:58:10;17.02;;;8.98;;
61104;SDS011;46987;32.638;-115.438;2023-02-20T14:00:43;18.83;;;9.57;;
61104;SDS011;46987;32.638;-115.438;2023-02-20T14:03:12;16.00;;;8.48;;
61104;SDS011;46987;32.638;-115.438;2023-02-20T14:05:40;14.63;;;9.02;;
61104;SDS011;46987;32.638;-115.438;2023-02-20T14:08:10;22.58;;;9.25;;
61104;SDS011;46987;32.638;-115.438;2023-02-20T14:10:41;12.93;;;8.88;;
61104;SDS011;46987;32.638;-115.438;2023-02-20T14:13:12;22.35;;;9.68;;
61104;SDS011;46987;32.638;-115.438;2023-02-20T14:15:44;16.40;;;10.38;;
61104;SDS011;46987;32.638;-115.438;2023-02-20T14:18:13;22.63;;;11.07;;
61104;SDS011;46987;32.638;-115.438;2023-02-20T14:20:42;18.50;;;11.27;;
61104;SDS011;46987;32.638;-115.438;2023-02-20T14:23:21;24.58;;;12.18;;
61104;SDS011;46987;32.638;-115.438;2023-02-20T14:25:56;29.60;;;11.95;;
61104;SDS011;46987;32.638;-115.438;2023-02-20T14:31:02;27.23;;;12.73;;
61104;SDS011;46987;32.638;-115.438;2023-02-20T14:33:29;28.85;;;12.95;;
61104;SDS011;46987;32.638;-115.438;2023-02-20T14:38:49;25.27;;;15.10;;